createdAt,value
2019-05-03T00:01:54.827Z,7.23
2019-05-03T00:04:23.334Z,7.25
2019-05-03T00:06:52.124Z,7.28
2019-05-03T00:09:22.451Z,7.33
2019-05-03T00:11:52.726Z,7.28
2019-05-03T00:14:21.776Z,7.21
2019-05-03T00:16:52.259Z,7.21
2019-05-03T00:19:21.943Z,7.20
2019-05-03T00:21:52.475Z,7.18
2019-05-03T00:24:22.490Z,7.08
2019-05-03T00:26:51.673Z,7.01
2019-05-03T00:29:21.995Z,6.95
2019-05-03T00:31:51.679Z,6.96
2019-05-03T00:34:24.438Z,6.94
2019-05-03T00:36:56.003Z,6.91
2019-05-03T00:39:29.377Z,6.90
2019-05-03T00:41:57.817Z,6.93
2019-05-03T00:44:26.524Z,6.90
2019-05-03T00:46:55.012Z,6.96
2019-05-03T00:49:23.526Z,7.01
2019-05-03T00:51:52.048Z,6.93
2019-05-03T00:54:22.266Z,6.90
2019-05-03T00:56:52.263Z,6.82
2019-05-03T00:59:22.131Z,6.81
2019-05-03T01:01:52.140Z,6.77
2019-05-03T01:04:22.362Z,6.68
2019-05-03T01:06:52.685Z,6.70
2019-05-03T01:09:23.319Z,6.73
2019-05-03T01:11:52.466Z,6.73
2019-05-03T01:14:22.553Z,6.70
2019-05-03T01:16:52.202Z,6.62
2019-05-03T01:19:22.592Z,6.56
2019-05-03T01:21:51.603Z,6.57
2019-05-03T01:24:21.771Z,6.52
2019-05-03T01:26:52.451Z,6.48
2019-05-03T01:29:22.795Z,6.49
2019-05-03T01:31:52.848Z,6.47
2019-05-03T01:34:22.008Z,6.42
2019-05-03T01:36:51.895Z,6.47
2019-05-03T01:39:22.090Z,6.47
2019-05-03T01:41:51.924Z,6.50
2019-05-03T01:44:22.026Z,6.47
2019-05-03T01:46:52.123Z,6.43
2019-05-03T01:49:34.496Z,6.46
2019-05-03T01:52:16.438Z,6.35
2019-05-03T01:54:45.075Z,6.25
2019-05-03T01:57:13.774Z,6.17
2019-05-03T01:59:42.670Z,6.13
2019-05-03T02:02:26.743Z,6.17
2019-05-03T02:05:14.266Z,6.10
2019-05-03T02:07:42.756Z,6.10
2019-05-03T02:10:11.898Z,6.10
2019-05-03T02:12:41.734Z,6.08
2019-05-03T02:15:11.876Z,6.08
2019-05-03T02:17:42.528Z,6.10
2019-05-03T02:20:12.623Z,6.09
2019-05-03T02:22:42.829Z,5.98
2019-05-03T02:25:12.405Z,6.02
2019-05-03T02:27:42.352Z,6.04
2019-05-03T02:30:13.717Z,6.08
2019-05-03T02:32:43.797Z,6.06
2019-05-03T02:35:14.017Z,5.98
2019-05-03T02:37:43.908Z,5.94
2019-05-03T02:40:13.099Z,5.89
2019-05-03T02:42:46.390Z,5.90
2019-05-03T02:45:21.306Z,5.92
2019-05-03T02:47:57.031Z,5.88
2019-05-03T02:50:26.170Z,5.87
2019-05-03T02:52:55.290Z,5.93
2019-05-03T02:55:26.000Z,5.93
2019-05-03T02:57:56.299Z,5.89
2019-05-03T03:00:55.876Z,5.81
2019-05-03T03:03:25.422Z,5.78
2019-05-03T03:05:55.886Z,5.77
2019-05-03T03:08:25.189Z,5.74
2019-05-03T03:10:55.678Z,5.75
2019-05-03T03:13:25.337Z,5.71
2019-05-03T03:15:55.361Z,5.74
2019-05-03T03:18:25.512Z,5.74
2019-05-03T03:20:55.343Z,5.74
2019-05-03T03:23:26.262Z,5.77
2019-05-03T03:25:55.837Z,5.77
2019-05-03T03:28:25.288Z,5.77
2019-05-03T03:31:28.439Z,5.76
2019-05-03T03:33:59.552Z,5.66
2019-05-03T03:36:46.203Z,5.70
2019-05-03T03:38:59.289Z,5.73
2019-05-03T03:41:28.146Z,5.74
2019-05-03T03:43:56.629Z,5.66
2019-05-03T03:46:25.390Z,5.68
2019-05-03T03:48:55.850Z,5.59
2019-05-03T03:51:26.292Z,5.63
2019-05-03T03:53:55.703Z,5.66
2019-05-03T03:56:25.545Z,5.69
2019-05-03T03:58:55.589Z,5.73
2019-05-03T04:01:26.743Z,5.71
2019-05-03T04:03:56.172Z,5.71
2019-05-03T04:06:40.517Z,5.74
2019-05-03T04:09:09.682Z,5.65
2019-05-03T04:11:38.169Z,5.57
2019-05-03T04:14:08.933Z,5.54
2019-05-03T04:16:45.414Z,5.55
2019-05-03T04:19:18.459Z,5.62
2019-05-03T04:21:46.974Z,5.57
2019-05-03T04:24:16.255Z,5.65
2019-05-03T04:26:45.401Z,5.65
2019-05-03T04:29:16.037Z,5.61
2019-05-03T04:31:45.776Z,5.63
2019-05-03T04:34:16.282Z,5.68
2019-05-03T04:36:46.192Z,5.69
2019-05-03T04:39:19.669Z,5.74
2019-05-03T04:41:45.540Z,5.82
2019-05-03T04:44:15.412Z,5.83
2019-05-03T04:46:46.403Z,5.91
2019-05-03T04:49:15.227Z,5.87
2019-05-03T04:51:46.373Z,5.82
2019-05-03T04:54:29.553Z,5.89
2019-05-03T04:56:58.294Z,5.89
2019-05-03T04:59:26.736Z,5.97
2019-05-03T05:01:56.033Z,6.00
2019-05-03T05:04:25.430Z,5.96
2019-05-03T05:06:55.512Z,6.00
2019-05-03T05:09:25.868Z,5.98
2019-05-03T05:11:54.907Z,6.06
2019-05-03T05:14:25.668Z,6.11
2019-05-03T05:16:55.711Z,6.13
2019-05-03T05:19:32.236Z,6.18
2019-05-03T05:22:05.993Z,6.25
2019-05-03T05:24:34.607Z,6.32
2019-05-03T05:27:25.611Z,6.38
2019-05-03T05:29:55.408Z,6.36
2019-05-03T05:32:24.801Z,6.44
2019-05-03T05:34:54.968Z,6.48
2019-05-03T05:37:25.004Z,6.48
2019-05-03T05:39:55.086Z,6.54
2019-05-03T05:42:25.083Z,6.55
2019-05-03T05:44:55.550Z,6.51
2019-05-03T05:47:36.005Z,6.55
2019-05-03T05:50:08.776Z,6.63
2019-05-03T05:52:37.255Z,6.67
2019-05-03T05:55:25.167Z,6.74
2019-05-03T05:58:04.631Z,6.76
2019-05-03T06:00:36.103Z,6.84
2019-05-03T06:03:05.172Z,6.86
2019-05-03T06:05:35.430Z,6.92
2019-05-03T06:08:11.775Z,6.99
2019-05-03T06:10:48.534Z,7.04
2019-05-03T06:13:37.152Z,7.10
2019-05-03T06:16:20.253Z,7.09
2019-05-03T06:19:04.630Z,7.14
2019-05-03T06:21:48.721Z,7.28
2019-05-03T06:24:25.876Z,7.43
2019-05-03T06:27:00.225Z,7.59
2019-05-03T06:29:28.688Z,7.62
2019-05-03T06:32:31.289Z,7.58
2019-05-03T06:35:00.184Z,7.57
2019-05-03T06:37:31.459Z,7.53
2019-05-03T06:40:00.075Z,7.55
2019-05-03T06:42:28.666Z,7.57
2019-05-03T06:44:59.717Z,7.54
2019-05-03T06:47:28.600Z,7.52
2019-05-03T06:49:57.126Z,7.57
2019-05-03T06:52:29.254Z,7.64
2019-05-03T06:55:00.484Z,7.73
2019-05-03T06:57:26.209Z,7.44
2019-05-03T07:00:05.325Z,7.79
2019-05-03T07:02:55.771Z,7.77
2019-05-03T07:05:35.434Z,7.82
2019-05-03T07:08:25.205Z,7.84
2019-05-03T07:10:56.542Z,7.87
2019-05-03T07:13:25.545Z,7.86
2019-05-03T07:15:56.003Z,7.91
2019-05-03T07:18:24.724Z,8.00
2019-05-03T07:20:57.160Z,8.12
2019-05-03T07:23:25.667Z,8.20
2019-05-03T07:25:55.139Z,8.22
2019-05-03T07:28:24.791Z,8.31
2019-05-03T07:30:54.407Z,8.29
2019-05-03T07:33:27.963Z,8.33
2019-05-03T07:35:56.484Z,8.37
2019-05-03T07:38:25.041Z,8.38
2019-05-03T07:40:54.986Z,8.40
2019-05-03T07:43:24.531Z,8.35
2019-05-03T07:45:55.096Z,8.39
2019-05-03T07:48:25.497Z,8.35
2019-05-03T07:50:54.665Z,8.41
2019-05-03T07:53:25.203Z,8.40
2019-05-03T07:56:15.472Z,8.37
2019-05-03T07:59:00.075Z,8.36
2019-05-03T08:01:35.597Z,8.38
2019-05-03T08:04:05.463Z,8.45
2019-05-03T08:06:34.573Z,8.58
2019-05-03T08:09:04.937Z,8.68
2019-05-03T08:11:35.168Z,8.78
2019-05-03T08:14:04.959Z,8.75
2019-05-03T08:16:35.329Z,8.63
2019-05-03T08:19:04.889Z,8.60
2019-05-03T08:21:37.906Z,8.68
2019-05-03T08:24:04.530Z,8.76
2019-05-03T08:26:34.986Z,8.85
2019-05-03T08:29:15.670Z,8.79
2019-05-03T08:31:52.068Z,8.86
2019-05-03T08:34:45.179Z,8.93
2019-05-03T08:37:16.730Z,9.00
2019-05-03T08:39:45.546Z,9.11
2019-05-03T08:42:20.438Z,9.27
2019-05-03T08:44:48.915Z,9.24
2019-05-03T08:47:17.529Z,9.21
2019-05-03T08:49:45.996Z,9.13
2019-05-03T08:52:15.708Z,9.19
2019-05-03T08:54:44.892Z,9.15
2019-05-03T08:57:15.039Z,9.04
2019-05-03T08:59:44.606Z,8.97
2019-05-03T09:02:17.426Z,8.83
2019-05-03T09:04:45.949Z,8.70
2019-05-03T09:07:14.747Z,8.77
2019-05-03T09:09:49.715Z,8.87
2019-05-03T09:12:18.166Z,8.95
2019-05-03T09:14:48.493Z,8.98
2019-05-03T09:17:16.809Z,8.88
2019-05-03T09:19:45.544Z,8.68
2019-05-03T09:22:14.765Z,8.48
2019-05-03T09:24:45.547Z,8.20
2019-05-03T09:27:15.435Z,8.09
2019-05-03T09:29:46.176Z,8.10
2019-05-03T09:32:14.808Z,8.03
2019-05-03T09:34:44.496Z,8.14
2019-05-03T09:37:12.970Z,8.32
2019-05-03T09:39:41.649Z,8.24
2019-05-03T09:42:10.110Z,8.27
2019-05-03T09:44:38.608Z,8.31
2019-05-03T09:47:07.075Z,8.46
2019-05-03T09:49:35.569Z,8.64
2019-05-03T09:52:08.100Z,8.88
2019-05-03T09:54:45.300Z,9.13
2019-05-03T09:57:15.255Z,9.14
2019-05-03T09:59:56.532Z,9.13
2019-05-03T10:02:15.177Z,9.14
2019-05-03T10:04:44.607Z,9.21
2019-05-03T10:07:15.382Z,9.22
2019-05-03T10:09:44.953Z,9.22
2019-05-03T10:12:18.005Z,9.19
2019-05-03T10:14:46.715Z,8.98
2019-05-03T10:17:35.199Z,8.75
2019-05-03T10:20:05.663Z,8.61
2019-05-03T10:22:34.916Z,8.52
2019-05-03T10:25:04.994Z,8.54
2019-05-03T10:27:45.753Z,8.65
2019-05-03T10:30:17.346Z,8.91
2019-05-03T10:32:48.678Z,9.07
2019-05-03T10:35:17.442Z,9.16
2019-05-03T10:37:45.894Z,9.29
2019-05-03T10:40:18.344Z,9.29
2019-05-03T10:42:46.886Z,9.32
2019-05-03T10:45:15.360Z,9.42
2019-05-03T10:47:45.649Z,9.45
2019-05-03T10:50:15.620Z,9.56
2019-05-03T10:52:49.067Z,9.70
2019-05-03T10:55:17.532Z,9.91
2019-05-03T10:57:48.769Z,9.95
2019-05-03T11:00:44.285Z,10.06
2019-05-03T11:03:00.874Z,10.15
2019-05-03T11:05:29.637Z,10.07
2019-05-03T11:07:58.091Z,10.08
2019-05-03T11:10:26.567Z,10.12
2019-05-03T11:12:55.102Z,10.03
2019-05-03T11:15:25.691Z,9.78
2019-05-03T11:17:54.900Z,9.94
2019-05-03T11:20:36.244Z,9.87
2019-05-03T11:23:05.904Z,9.81
2019-05-03T11:25:34.868Z,9.80
2019-05-03T11:28:07.025Z,9.97
2019-05-03T11:30:35.961Z,10.07
2019-05-03T11:33:11.931Z,10.09
2019-05-03T11:35:44.826Z,9.82
2019-05-03T11:38:19.324Z,9.34
2019-05-03T11:40:47.996Z,9.22
2019-05-03T11:43:18.310Z,9.19
2019-05-03T11:45:46.773Z,9.28
2019-05-03T11:48:15.232Z,9.28
2019-05-03T11:50:45.350Z,9.32
2019-05-03T11:53:14.528Z,9.25
2019-05-03T11:55:46.283Z,9.16
2019-05-03T11:58:23.088Z,9.06
2019-05-03T12:01:11.811Z,8.90
2019-05-03T12:03:35.536Z,8.68
2019-05-03T12:06:04.946Z,8.59
2019-05-03T12:08:34.584Z,8.67
2019-05-03T12:11:05.587Z,8.81
2019-05-03T12:13:33.662Z,9.01
2019-05-03T12:16:12.915Z,9.29
2019-05-03T12:18:46.068Z,9.51
2019-05-03T12:21:05.280Z,9.69
2019-05-03T12:23:36.136Z,9.94
2019-05-03T12:26:09.460Z,9.94
2019-05-03T12:28:35.279Z,9.98
2019-05-03T12:31:04.904Z,9.86
2019-05-03T12:33:35.455Z,9.52
2019-05-03T12:36:05.360Z,9.16
2019-05-03T12:38:34.887Z,8.93
2019-05-03T12:41:05.578Z,8.88
2019-05-03T12:43:33.964Z,8.92
2019-05-03T12:46:02.439Z,8.96
2019-05-03T12:48:30.908Z,9.03
2019-05-03T12:50:59.844Z,9.07
2019-05-03T12:53:28.329Z,9.03
2019-05-03T12:55:56.807Z,9.05
2019-05-03T12:58:46.643Z,9.26
2019-05-03T13:01:34.016Z,9.45
2019-05-03T13:04:01.797Z,9.64
2019-05-03T13:06:32.209Z,9.89
2019-05-03T13:09:00.712Z,10.26
2019-05-03T13:11:30.059Z,10.59
2019-05-03T13:13:58.674Z,10.56
2019-05-03T13:16:27.197Z,10.60
2019-05-03T13:18:55.742Z,10.93
2019-05-03T13:21:25.240Z,10.68
2019-05-03T13:23:54.855Z,10.23
2019-05-03T13:26:25.448Z,10.08
2019-05-03T13:28:55.274Z,9.99
2019-05-03T13:31:25.117Z,9.87
2019-05-03T13:33:54.931Z,9.86
2019-05-03T13:36:25.300Z,10.07
2019-05-03T13:38:54.642Z,10.17
2019-05-03T13:41:25.021Z,10.18
2019-05-03T13:43:54.902Z,10.07
2019-05-03T13:46:24.643Z,9.92
2019-05-03T13:48:55.322Z,9.71
2019-05-03T13:51:25.202Z,9.52
2019-05-03T13:53:55.040Z,9.35
2019-05-03T13:56:24.693Z,9.13
2019-05-03T13:58:55.048Z,9.09
2019-05-03T14:01:25.202Z,9.01
2019-05-03T14:03:54.557Z,9.03
2019-05-03T14:06:24.567Z,9.12
2019-05-03T14:08:54.820Z,9.22
2019-05-03T14:11:25.272Z,9.22
2019-05-03T14:13:55.217Z,9.24
2019-05-03T14:16:23.873Z,9.22
2019-05-03T14:18:55.070Z,9.36
2019-05-03T14:21:29.786Z,9.45
2019-05-03T14:24:10.978Z,9.66
2019-05-03T14:26:40.111Z,10.10
2019-05-03T14:29:08.606Z,10.47
2019-05-03T14:31:37.163Z,10.88
2019-05-03T14:34:06.118Z,11.26
2019-05-03T14:36:35.886Z,11.59
2019-05-03T14:39:09.324Z,11.95
2019-05-03T14:41:36.329Z,11.81
2019-05-03T14:44:05.135Z,11.24
2019-05-03T14:46:36.063Z,10.95
2019-05-03T14:49:05.508Z,11.29
2019-05-03T14:51:34.941Z,11.52
2019-05-03T14:54:05.414Z,11.66
2019-05-03T14:56:45.815Z,11.34
2019-05-03T14:59:32.043Z,11.03
2019-05-03T15:02:06.910Z,11.07
2019-05-03T15:04:35.429Z,11.59
2019-05-03T15:07:06.099Z,11.40
2019-05-03T15:09:35.287Z,11.51
2019-05-03T15:12:05.324Z,11.55
2019-05-03T15:14:34.630Z,11.68
2019-05-03T15:17:05.242Z,11.55
2019-05-03T15:19:34.955Z,11.49
2019-05-03T15:22:05.564Z,11.28
2019-05-03T15:24:34.603Z,10.90
2019-05-03T15:27:04.832Z,10.77
2019-05-03T15:29:35.330Z,10.93
2019-05-03T15:32:05.056Z,11.19
2019-05-03T15:34:35.392Z,11.27
2019-05-03T15:37:05.431Z,11.39
2019-05-03T15:39:34.051Z,11.43
2019-05-03T15:42:05.079Z,11.61
2019-05-03T15:44:50.878Z,11.69
2019-05-03T15:47:25.376Z,11.70
2019-05-03T15:49:55.390Z,11.59
2019-05-03T15:52:24.643Z,11.79
2019-05-03T15:54:55.096Z,12.09
2019-05-03T15:57:25.315Z,12.02
2019-05-03T15:59:55.170Z,11.65
2019-05-03T16:02:24.645Z,11.24
2019-05-03T16:04:55.410Z,10.90
2019-05-03T16:07:25.107Z,10.64
2019-05-03T16:09:55.233Z,10.50
2019-05-03T16:12:23.831Z,10.35
2019-05-03T16:14:52.412Z,10.39
2019-05-03T16:17:21.143Z,10.35
2019-05-03T16:19:49.751Z,10.34
2019-05-03T16:22:18.207Z,10.33
2019-05-03T16:24:47.094Z,10.17
2019-05-03T16:27:41.791Z,10.23
2019-05-03T16:30:26.283Z,10.22
2019-05-03T16:32:55.042Z,10.11
2019-05-03T16:35:25.541Z,10.12
2019-05-03T16:37:54.447Z,10.21
2019-05-03T16:40:25.153Z,10.07
2019-05-03T16:42:53.262Z,10.03
2019-05-03T16:45:21.745Z,9.99
2019-05-03T16:47:50.403Z,10.08
2019-05-03T16:50:18.974Z,9.98
2019-05-03T16:52:47.434Z,9.88
2019-05-03T16:55:16.443Z,9.71
2019-05-03T16:57:44.919Z,9.59
2019-05-03T17:00:15.360Z,9.56
2019-05-03T17:02:44.328Z,9.50
2019-05-03T17:05:28.244Z,9.42
2019-05-03T17:08:14.731Z,9.47
2019-05-03T17:10:46.093Z,9.39
2019-05-03T17:13:14.811Z,9.35
2019-05-03T17:15:43.218Z,9.29
2019-05-03T17:18:11.684Z,9.20
2019-05-03T17:20:40.159Z,9.13
2019-05-03T17:23:08.644Z,9.05
2019-05-03T17:25:37.168Z,8.83
2019-05-03T17:28:05.691Z,8.51
2019-05-03T17:30:37.337Z,8.51
2019-05-03T17:33:04.653Z,8.38
2019-05-03T17:35:34.604Z,8.10
2019-05-03T17:38:05.196Z,8.05
2019-05-03T17:40:51.429Z,8.00
2019-05-03T17:43:27.219Z,8.08
2019-05-03T17:45:56.795Z,8.07
2019-05-03T17:48:25.259Z,8.12
2019-05-03T17:50:55.030Z,8.19
2019-05-03T17:53:42.630Z,8.19
2019-05-03T17:56:16.105Z,8.14
2019-05-03T17:58:48.060Z,8.10
2019-05-03T18:01:25.269Z,8.09
2019-05-03T18:04:06.088Z,7.96
2019-05-03T18:06:29.545Z,7.93
2019-05-03T18:09:17.062Z,7.76
2019-05-03T18:11:47.654Z,7.69
2019-05-03T18:14:16.314Z,7.69
2019-05-03T18:16:44.853Z,7.65
2019-05-03T18:19:13.322Z,7.69
2019-05-03T18:21:41.951Z,7.72
2019-05-03T18:24:10.443Z,7.74
2019-05-03T18:26:38.921Z,7.72
2019-05-03T18:29:07.386Z,7.68
2019-05-03T18:31:36.040Z,7.60
2019-05-03T18:34:06.241Z,7.57
2019-05-03T18:36:34.797Z,7.58
2019-05-03T18:39:05.451Z,7.58
2019-05-03T18:41:34.584Z,7.60
2019-05-03T18:44:28.398Z,7.58
2019-05-03T18:46:59.629Z,7.49
2019-05-03T18:49:28.146Z,7.24
2019-05-03T18:51:56.734Z,6.85
2019-05-03T18:54:25.199Z,6.63
2019-05-03T18:56:55.577Z,6.46
2019-05-03T18:59:23.977Z,6.37
2019-05-03T19:01:52.427Z,6.39
2019-05-03T19:04:39.925Z,6.37
2019-05-03T19:07:15.947Z,6.25
2019-05-03T19:09:52.347Z,6.15
2019-05-03T19:12:30.387Z,6.21
2019-05-03T19:14:58.841Z,6.27
2019-05-03T19:17:37.929Z,6.21
2019-05-03T19:20:09.741Z,6.14
2019-05-03T19:22:38.237Z,6.15
2019-05-03T19:25:06.785Z,6.07
2019-05-03T19:27:35.358Z,6.10
2019-05-03T19:30:04.693Z,6.14
2019-05-03T19:32:33.137Z,6.25
2019-05-03T19:35:01.688Z,6.32
2019-05-03T19:37:30.133Z,6.20
2019-05-03T19:39:58.674Z,6.28
2019-05-03T19:42:27.463Z,6.35
2019-05-03T19:44:56.279Z,6.38
2019-05-03T19:47:25.381Z,6.34
2019-05-03T19:49:54.729Z,6.33
2019-05-03T19:52:26.118Z,6.25
2019-05-03T19:54:55.436Z,6.25
2019-05-03T19:57:28.621Z,6.35
2019-05-03T19:59:57.122Z,6.53
2019-05-03T20:02:45.396Z,6.58
2019-05-03T20:05:31.937Z,6.55
2019-05-03T20:08:18.474Z,6.56
2019-05-03T20:10:47.069Z,6.51
2019-05-03T20:13:15.545Z,6.60
2019-05-03T20:15:45.137Z,6.58
2019-05-03T20:18:15.048Z,6.62
2019-05-03T20:20:44.654Z,6.71
2019-05-03T20:23:14.605Z,6.69
2019-05-03T20:25:43.162Z,6.63
2019-05-03T20:28:11.645Z,6.61
2019-05-03T20:30:40.198Z,6.60
2019-05-03T20:33:08.692Z,6.40
2019-05-03T20:35:37.253Z,6.56
2019-05-03T20:38:05.788Z,6.51
2019-05-03T20:40:35.045Z,6.54
2019-05-03T20:43:25.820Z,6.49
2019-05-03T20:46:10.656Z,6.51
2019-05-03T20:48:40.986Z,6.49
2019-05-03T20:51:09.532Z,6.50
2019-05-03T20:53:37.981Z,6.47
2019-05-03T20:56:06.654Z,6.31
2019-05-03T20:58:35.818Z,6.28
2019-05-03T21:01:05.047Z,6.17
2019-05-03T21:03:33.488Z,6.11
2019-05-03T21:06:02.454Z,6.01
2019-05-03T21:08:31.604Z,6.05
2019-05-03T21:11:00.107Z,5.91
2019-05-03T21:13:39.209Z,5.78
2019-05-03T21:16:11.900Z,5.81
2019-05-03T21:18:49.289Z,5.86
2019-05-03T21:21:35.400Z,5.87
2019-05-03T21:24:11.855Z,5.76
2019-05-03T21:26:40.339Z,5.69
2019-05-03T21:29:08.872Z,5.74
2019-05-03T21:31:37.581Z,5.79
2019-05-03T21:34:06.327Z,5.87
2019-05-03T21:36:34.994Z,5.85
2019-05-03T21:39:05.318Z,5.78
2019-05-03T21:41:35.199Z,5.73
2019-05-03T21:44:04.828Z,5.71
2019-05-03T21:46:41.712Z,5.63
2019-05-03T21:49:35.306Z,5.62
2019-05-03T21:52:04.539Z,5.68
2019-05-03T21:54:34.627Z,5.66
2019-05-03T21:57:03.311Z,5.69
2019-05-03T21:59:31.754Z,5.65
2019-05-03T22:02:00.303Z,5.74
2019-05-03T22:04:28.770Z,5.76
2019-05-03T22:06:57.232Z,5.73
2019-05-03T22:09:25.691Z,5.72
2019-05-03T22:11:54.842Z,5.72
2019-05-03T22:14:30.862Z,5.73
2019-05-03T22:17:18.358Z,5.69
2019-05-03T22:19:48.928Z,5.74
2019-05-03T22:22:36.558Z,5.66
2019-05-03T22:25:05.837Z,5.66
2019-05-03T22:27:40.226Z,5.67
2019-05-03T22:30:09.002Z,5.69
2019-05-03T22:32:37.521Z,5.74
2019-05-03T22:35:07.505Z,5.75
2019-05-03T22:37:36.080Z,5.73
2019-05-03T22:40:05.342Z,5.65
2019-05-03T22:42:34.623Z,5.50
2019-05-03T22:45:04.676Z,5.53
2019-05-03T22:47:33.303Z,5.46
2019-05-03T22:50:01.862Z,5.48
2019-05-03T22:52:30.518Z,5.49
2019-05-03T22:54:58.981Z,5.50
2019-05-03T22:57:27.579Z,5.50
2019-05-03T22:59:56.056Z,5.50
2019-05-03T23:02:25.041Z,5.45
2019-05-03T23:04:55.439Z,5.42
2019-05-03T23:07:25.008Z,5.40
2019-05-03T23:09:53.487Z,5.44
2019-05-03T23:12:22.190Z,5.48
2019-05-03T23:14:50.629Z,5.55
2019-05-03T23:17:19.180Z,5.62
2019-05-03T23:19:50.666Z,5.62
2019-05-03T23:22:25.165Z,5.62
2019-05-03T23:24:54.809Z,5.55
2019-05-03T23:27:25.000Z,5.46
2019-05-03T23:29:54.530Z,5.47
2019-05-03T23:32:24.484Z,5.53
2019-05-03T23:34:54.445Z,5.58
2019-05-03T23:37:25.372Z,5.59
2019-05-03T23:39:54.983Z,5.46
2019-05-03T23:42:24.474Z,5.47
2019-05-03T23:44:52.966Z,5.44
2019-05-03T23:47:28.720Z,5.43
2019-05-03T23:49:57.190Z,5.45
2019-05-03T23:52:32.488Z,5.51
2019-05-03T23:55:01.817Z,5.53
2019-05-03T23:57:30.245Z,5.54
2019-05-03T23:59:58.715Z,5.57
